sensor_id;sensor_type;location;lat;lon;timestamp;P1;durP1;ratioP1;P2;durP2;ratioP2
42724;SDS011;28369;44.046;23.014;2022-10-16T00:00:29;20.10;;;14.30;;
42724;SDS011;28369;44.046;23.014;2022-10-16T00:06:21;20.83;;;14.02;;
42724;SDS011;28369;44.046;23.014;2022-10-16T00:12:09;19.92;;;14.27;;
42724;SDS011;28369;44.046;23.014;2022-10-16T00:18:01;22.98;;;13.93;;
42724;SDS011;28369;44.046;23.014;2022-10-16T00:20:27;17.45;;;13.77;;
42724;SDS011;28369;44.046;23.014;2022-10-16T00:22:53;18.98;;;12.95;;
42724;SDS011;28369;44.046;23.014;2022-10-16T00:25:18;17.35;;;12.10;;
42724;SDS011;28369;44.046;23.014;2022-10-16T00:31:23;17.50;;;12.52;;
42724;SDS011;28369;44.046;23.014;2022-10-16T00:37:15;17.80;;;12.52;;
42724;SDS011;28369;44.046;23.014;2022-10-16T00:46:02;17.88;;;12.68;;
42724;SDS011;28369;44.046;23.014;2022-10-16T00:48:30;16.92;;;12.98;;
42724;SDS011;28369;44.046;23.014;2022-10-16T00:50:56;16.02;;;12.40;;
42724;SDS011;28369;44.046;23.014;2022-10-16T00:53:31;16.63;;;11.77;;
42724;SDS011;28369;44.046;23.014;2022-10-16T00:59:40;19.27;;;13.63;;
42724;SDS011;28369;44.046;23.014;2022-10-16T01:02:12;20.35;;;13.50;;
42724;SDS011;28369;44.046;23.014;2022-10-16T01:04:54;20.17;;;14.65;;
42724;SDS011;28369;44.046;23.014;2022-10-16T01:17:34;22.17;;;14.23;;
42724;SDS011;28369;44.046;23.014;2022-10-16T01:24:38;17.17;;;13.30;;
42724;SDS011;28369;44.046;23.014;2022-10-16T01:27:22;21.92;;;13.60;;
42724;SDS011;28369;44.046;23.014;2022-10-16T01:29:53;20.88;;;13.82;;
42724;SDS011;28369;44.046;23.014;2022-10-16T01:32:47;20.23;;;13.63;;
42724;SDS011;28369;44.046;23.014;2022-10-16T01:35:34;16.65;;;13.52;;
42724;SDS011;28369;44.046;23.014;2022-10-16T01:38:08;21.75;;;13.43;;
42724;SDS011;28369;44.046;23.014;2022-10-16T01:40:41;17.88;;;13.38;;
42724;SDS011;28369;44.046;23.014;2022-10-16T01:43:33;19.92;;;13.20;;
42724;SDS011;28369;44.046;23.014;2022-10-16T01:46:46;19.20;;;14.38;;
42724;SDS011;28369;44.046;23.014;2022-10-16T01:49:13;20.50;;;13.50;;
42724;SDS011;28369;44.046;23.014;2022-10-16T01:51:41;15.75;;;12.27;;
42724;SDS011;28369;44.046;23.014;2022-10-16T01:54:12;21.55;;;12.98;;
42724;SDS011;28369;44.046;23.014;2022-10-16T01:56:41;17.45;;;11.98;;
42724;SDS011;28369;44.046;23.014;2022-10-16T01:59:12;19.13;;;11.95;;
42724;SDS011;28369;44.046;23.014;2022-10-16T02:01:41;19.48;;;11.35;;
42724;SDS011;28369;44.046;23.014;2022-10-16T02:04:19;17.13;;;11.75;;
42724;SDS011;28369;44.046;23.014;2022-10-16T02:06:49;18.98;;;12.63;;
42724;SDS011;28369;44.046;23.014;2022-10-16T02:09:15;18.13;;;12.38;;
42724;SDS011;28369;44.046;23.014;2022-10-16T02:11:42;14.57;;;12.32;;
42724;SDS011;28369;44.046;23.014;2022-10-16T02:14:08;16.75;;;12.50;;
42724;SDS011;28369;44.046;23.014;2022-10-16T02:16:35;15.75;;;13.05;;
42724;SDS011;28369;44.046;23.014;2022-10-16T02:19:05;20.95;;;13.35;;
42724;SDS011;28369;44.046;23.014;2022-10-16T02:36:57;14.98;;;11.75;;
42724;SDS011;28369;44.046;23.014;2022-10-16T02:39:26;23.58;;;13.43;;
42724;SDS011;28369;44.046;23.014;2022-10-16T02:41:53;18.20;;;13.32;;
42724;SDS011;28369;44.046;23.014;2022-10-16T02:44:19;19.60;;;13.20;;
42724;SDS011;28369;44.046;23.014;2022-10-16T02:46:44;18.77;;;13.38;;
42724;SDS011;28369;44.046;23.014;2022-10-16T02:49:10;19.00;;;13.82;;
42724;SDS011;28369;44.046;23.014;2022-10-16T02:51:35;18.08;;;13.23;;
42724;SDS011;28369;44.046;23.014;2022-10-16T02:54:01;23.98;;;14.13;;
42724;SDS011;28369;44.046;23.014;2022-10-16T02:56:27;19.23;;;13.38;;
42724;SDS011;28369;44.046;23.014;2022-10-16T02:58:53;20.77;;;12.88;;
42724;SDS011;28369;44.046;23.014;2022-10-16T03:01:18;16.27;;;13.55;;
42724;SDS011;28369;44.046;23.014;2022-10-16T03:03:43;18.67;;;12.70;;
42724;SDS011;28369;44.046;23.014;2022-10-16T03:06:09;15.38;;;13.30;;
42724;SDS011;28369;44.046;23.014;2022-10-16T03:08:34;15.68;;;12.88;;
42724;SDS011;28369;44.046;23.014;2022-10-16T03:11:00;18.27;;;13.27;;
42724;SDS011;28369;44.046;23.014;2022-10-16T03:13:25;19.98;;;12.82;;
42724;SDS011;28369;44.046;23.014;2022-10-16T03:15:51;22.90;;;16.65;;
42724;SDS011;28369;44.046;23.014;2022-10-16T03:18:16;23.17;;;15.30;;
42724;SDS011;28369;44.046;23.014;2022-10-16T03:20:42;20.65;;;14.07;;
42724;SDS011;28369;44.046;23.014;2022-10-16T03:23:08;17.10;;;13.75;;
42724;SDS011;28369;44.046;23.014;2022-10-16T03:25:34;15.30;;;13.30;;
42724;SDS011;28369;44.046;23.014;2022-10-16T03:27:59;20.45;;;14.18;;
42724;SDS011;28369;44.046;23.014;2022-10-16T03:30:25;20.23;;;13.10;;
42724;SDS011;28369;44.046;23.014;2022-10-16T03:32:50;43.50;;;25.48;;
42724;SDS011;28369;44.046;23.014;2022-10-16T03:35:19;47.00;;;24.10;;
42724;SDS011;28369;44.046;23.014;2022-10-16T03:37:46;38.95;;;21.45;;
42724;SDS011;28369;44.046;23.014;2022-10-16T03:40:11;32.65;;;19.92;;
42724;SDS011;28369;44.046;23.014;2022-10-16T03:42:38;34.00;;;21.98;;
42724;SDS011;28369;44.046;23.014;2022-10-16T03:45:04;30.20;;;19.75;;
42724;SDS011;28369;44.046;23.014;2022-10-16T03:47:30;24.98;;;18.55;;
42724;SDS011;28369;44.046;23.014;2022-10-16T03:49:55;29.73;;;18.25;;
42724;SDS011;28369;44.046;23.014;2022-10-16T03:52:21;28.65;;;17.90;;
42724;SDS011;28369;44.046;23.014;2022-10-16T03:54:46;24.20;;;17.70;;
42724;SDS011;28369;44.046;23.014;2022-10-16T04:03:53;28.77;;;21.52;;
42724;SDS011;28369;44.046;23.014;2022-10-16T04:06:19;27.75;;;20.15;;
42724;SDS011;28369;44.046;23.014;2022-10-16T04:08:44;30.92;;;21.85;;
42724;SDS011;28369;44.046;23.014;2022-10-16T04:11:10;32.55;;;24.02;;
42724;SDS011;28369;44.046;23.014;2022-10-16T04:13:36;55.58;;;41.28;;
42724;SDS011;28369;44.046;23.014;2022-10-16T04:16:01;35.25;;;24.00;;
42724;SDS011;28369;44.046;23.014;2022-10-16T04:18:27;25.20;;;20.95;;
42724;SDS011;28369;44.046;23.014;2022-10-16T04:20:53;29.00;;;21.70;;
42724;SDS011;28369;44.046;23.014;2022-10-16T04:23:19;28.55;;;21.10;;
42724;SDS011;28369;44.046;23.014;2022-10-16T04:25:44;24.83;;;19.15;;
42724;SDS011;28369;44.046;23.014;2022-10-16T04:28:10;28.08;;;20.73;;
42724;SDS011;28369;44.046;23.014;2022-10-16T04:30:37;31.52;;;21.70;;
42724;SDS011;28369;44.046;23.014;2022-10-16T04:33:04;30.88;;;23.65;;
42724;SDS011;28369;44.046;23.014;2022-10-16T04:35:29;25.85;;;20.52;;
42724;SDS011;28369;44.046;23.014;2022-10-16T04:37:56;29.48;;;22.52;;
42724;SDS011;28369;44.046;23.014;2022-10-16T04:40:23;31.05;;;22.10;;
42724;SDS011;28369;44.046;23.014;2022-10-16T04:42:48;30.70;;;23.27;;
42724;SDS011;28369;44.046;23.014;2022-10-16T04:45:14;37.10;;;25.88;;
42724;SDS011;28369;44.046;23.014;2022-10-16T04:47:40;41.45;;;28.58;;
42724;SDS011;28369;44.046;23.014;2022-10-16T04:50:05;34.67;;;24.15;;
42724;SDS011;28369;44.046;23.014;2022-10-16T04:52:31;45.05;;;26.55;;
42724;SDS011;28369;44.046;23.014;2022-10-16T04:54:57;46.78;;;30.80;;
42724;SDS011;28369;44.046;23.014;2022-10-16T04:57:26;37.10;;;28.58;;
42724;SDS011;28369;44.046;23.014;2022-10-16T04:59:52;38.55;;;27.98;;
42724;SDS011;28369;44.046;23.014;2022-10-16T05:02:17;45.58;;;29.23;;
42724;SDS011;28369;44.046;23.014;2022-10-16T05:04:43;58.92;;;39.45;;
42724;SDS011;28369;44.046;23.014;2022-10-16T05:07:08;70.32;;;50.25;;
42724;SDS011;28369;44.046;23.014;2022-10-16T05:09:34;41.83;;;30.40;;
42724;SDS011;28369;44.046;23.014;2022-10-16T05:11:59;44.95;;;32.90;;
42724;SDS011;28369;44.046;23.014;2022-10-16T05:14:25;40.08;;;30.75;;
42724;SDS011;28369;44.046;23.014;2022-10-16T05:16:50;45.78;;;28.90;;
42724;SDS011;28369;44.046;23.014;2022-10-16T05:19:16;44.42;;;27.65;;
42724;SDS011;28369;44.046;23.014;2022-10-16T05:21:42;48.97;;;30.88;;
42724;SDS011;28369;44.046;23.014;2022-10-16T05:24:07;38.45;;;27.35;;
42724;SDS011;28369;44.046;23.014;2022-10-16T05:26:34;35.55;;;25.85;;
42724;SDS011;28369;44.046;23.014;2022-10-16T05:28:59;36.70;;;27.05;;
42724;SDS011;28369;44.046;23.014;2022-10-16T05:31:25;35.15;;;26.13;;
42724;SDS011;28369;44.046;23.014;2022-10-16T05:33:51;37.08;;;25.48;;
42724;SDS011;28369;44.046;23.014;2022-10-16T05:36:16;37.42;;;25.80;;
42724;SDS011;28369;44.046;23.014;2022-10-16T05:38:43;32.97;;;25.40;;
42724;SDS011;28369;44.046;23.014;2022-10-16T05:41:09;34.78;;;23.42;;
42724;SDS011;28369;44.046;23.014;2022-10-16T05:43:34;29.55;;;21.73;;
42724;SDS011;28369;44.046;23.014;2022-10-16T05:46:02;33.72;;;20.83;;
42724;SDS011;28369;44.046;23.014;2022-10-16T05:48:30;26.98;;;20.65;;
42724;SDS011;28369;44.046;23.014;2022-10-16T05:50:59;29.65;;;21.48;;
42724;SDS011;28369;44.046;23.014;2022-10-16T05:53:30;28.95;;;19.33;;
42724;SDS011;28369;44.046;23.014;2022-10-16T05:55:57;23.87;;;19.37;;
42724;SDS011;28369;44.046;23.014;2022-10-16T05:58:23;24.73;;;17.52;;
42724;SDS011;28369;44.046;23.014;2022-10-16T06:00:56;21.70;;;17.08;;
42724;SDS011;28369;44.046;23.014;2022-10-16T06:03:22;22.60;;;17.08;;
42724;SDS011;28369;44.046;23.014;2022-10-16T06:05:48;22.40;;;17.23;;
42724;SDS011;28369;44.046;23.014;2022-10-16T06:11:07;21.77;;;16.85;;
42724;SDS011;28369;44.046;23.014;2022-10-16T06:13:35;28.88;;;18.05;;
42724;SDS011;28369;44.046;23.014;2022-10-16T06:16:01;21.48;;;16.95;;
42724;SDS011;28369;44.046;23.014;2022-10-16T06:18:28;23.48;;;17.05;;
42724;SDS011;28369;44.046;23.014;2022-10-16T06:20:54;24.02;;;17.52;;
42724;SDS011;28369;44.046;23.014;2022-10-16T06:23:21;20.42;;;17.98;;
42724;SDS011;28369;44.046;23.014;2022-10-16T06:25:53;20.23;;;16.17;;
42724;SDS011;28369;44.046;23.014;2022-10-16T06:30:44;22.10;;;16.25;;
42724;SDS011;28369;44.046;23.014;2022-10-16T06:33:10;23.83;;;17.33;;
42724;SDS011;28369;44.046;23.014;2022-10-16T06:35:44;20.13;;;15.68;;
42724;SDS011;28369;44.046;23.014;2022-10-16T06:41:05;25.98;;;17.27;;
42724;SDS011;28369;44.046;23.014;2022-10-16T06:43:32;24.95;;;17.45;;
42724;SDS011;28369;44.046;23.014;2022-10-16T06:46:07;19.95;;;15.75;;
42724;SDS011;28369;44.046;23.014;2022-10-16T06:48:34;20.95;;;16.27;;
42724;SDS011;28369;44.046;23.014;2022-10-16T06:51:04;21.98;;;15.60;;
42724;SDS011;28369;44.046;23.014;2022-10-16T06:53:32;21.48;;;16.92;;
42724;SDS011;28369;44.046;23.014;2022-10-16T06:56:21;20.98;;;15.40;;
42724;SDS011;28369;44.046;23.014;2022-10-16T06:58:46;16.33;;;14.02;;
42724;SDS011;28369;44.046;23.014;2022-10-16T07:04:35;19.65;;;14.43;;
42724;SDS011;28369;44.046;23.014;2022-10-16T07:07:01;18.88;;;13.68;;
42724;SDS011;28369;44.046;23.014;2022-10-16T07:09:27;16.05;;;12.68;;
42724;SDS011;28369;44.046;23.014;2022-10-16T07:11:52;22.05;;;13.38;;
42724;SDS011;28369;44.046;23.014;2022-10-16T07:14:19;18.73;;;12.35;;
42724;SDS011;28369;44.046;23.014;2022-10-16T07:16:46;23.35;;;13.77;;
42724;SDS011;28369;44.046;23.014;2022-10-16T07:19:12;23.65;;;13.38;;
42724;SDS011;28369;44.046;23.014;2022-10-16T07:21:40;19.13;;;13.55;;
42724;SDS011;28369;44.046;23.014;2022-10-16T07:24:07;22.42;;;13.35;;
42724;SDS011;28369;44.046;23.014;2022-10-16T07:26:37;22.70;;;13.18;;
42724;SDS011;28369;44.046;23.014;2022-10-16T07:32:38;16.38;;;13.73;;
42724;SDS011;28369;44.046;23.014;2022-10-16T07:38:25;22.08;;;13.65;;
42724;SDS011;28369;44.046;23.014;2022-10-16T07:41:01;21.27;;;13.20;;
42724;SDS011;28369;44.046;23.014;2022-10-16T07:43:31;20.88;;;13.68;;
42724;SDS011;28369;44.046;23.014;2022-10-16T07:45:57;22.73;;;14.07;;
42724;SDS011;28369;44.046;23.014;2022-10-16T07:48:23;21.60;;;13.68;;
42724;SDS011;28369;44.046;23.014;2022-10-16T07:50:51;26.52;;;14.35;;
42724;SDS011;28369;44.046;23.014;2022-10-16T07:53:16;22.98;;;14.10;;
42724;SDS011;28369;44.046;23.014;2022-10-16T07:55:42;27.98;;;13.25;;
42724;SDS011;28369;44.046;23.014;2022-10-16T07:58:08;20.20;;;14.20;;
42724;SDS011;28369;44.046;23.014;2022-10-16T08:00:34;19.45;;;13.57;;
42724;SDS011;28369;44.046;23.014;2022-10-16T08:03:01;17.70;;;12.98;;
42724;SDS011;28369;44.046;23.014;2022-10-16T08:05:27;23.40;;;12.88;;
42724;SDS011;28369;44.046;23.014;2022-10-16T08:07:54;23.63;;;13.02;;
42724;SDS011;28369;44.046;23.014;2022-10-16T08:10:21;25.30;;;14.48;;
42724;SDS011;28369;44.046;23.014;2022-10-16T08:12:52;19.30;;;13.27;;
42724;SDS011;28369;44.046;23.014;2022-10-16T08:15:18;18.70;;;13.27;;
42724;SDS011;28369;44.046;23.014;2022-10-16T08:17:44;20.23;;;14.55;;
42724;SDS011;28369;44.046;23.014;2022-10-16T08:20:19;29.35;;;13.18;;
42724;SDS011;28369;44.046;23.014;2022-10-16T08:22:44;20.52;;;13.98;;
42724;SDS011;28369;44.046;23.014;2022-10-16T08:25:09;22.83;;;14.35;;
42724;SDS011;28369;44.046;23.014;2022-10-16T08:27:35;18.60;;;13.45;;
42724;SDS011;28369;44.046;23.014;2022-10-16T08:30:00;20.17;;;13.38;;
42724;SDS011;28369;44.046;23.014;2022-10-16T08:32:26;20.02;;;14.15;;
42724;SDS011;28369;44.046;23.014;2022-10-16T08:34:51;19.38;;;13.75;;
42724;SDS011;28369;44.046;23.014;2022-10-16T08:37:17;19.38;;;12.95;;
42724;SDS011;28369;44.046;23.014;2022-10-16T08:39:42;22.40;;;14.40;;
42724;SDS011;28369;44.046;23.014;2022-10-16T08:42:14;24.30;;;13.63;;
42724;SDS011;28369;44.046;23.014;2022-10-16T08:50:47;22.83;;;14.75;;
42724;SDS011;28369;44.046;23.014;2022-10-16T08:53:15;24.08;;;13.55;;
42724;SDS011;28369;44.046;23.014;2022-10-16T08:55:52;25.85;;;14.32;;
42724;SDS011;28369;44.046;23.014;2022-10-16T08:58:30;25.35;;;14.32;;
42724;SDS011;28369;44.046;23.014;2022-10-16T09:07:20;26.25;;;18.95;;
42724;SDS011;28369;44.046;23.014;2022-10-16T09:16:53;23.77;;;15.40;;
42724;SDS011;28369;44.046;23.014;2022-10-16T09:21:53;22.45;;;14.38;;
42724;SDS011;28369;44.046;23.014;2022-10-16T09:24:21;22.35;;;14.85;;
42724;SDS011;28369;44.046;23.014;2022-10-16T09:26:49;19.35;;;13.30;;
42724;SDS011;28369;44.046;23.014;2022-10-16T09:29:16;23.67;;;13.82;;
42724;SDS011;28369;44.046;23.014;2022-10-16T09:31:45;20.83;;;13.55;;
42724;SDS011;28369;44.046;23.014;2022-10-16T09:34:20;19.30;;;12.45;;
42724;SDS011;28369;44.046;23.014;2022-10-16T09:36:55;22.52;;;12.60;;
42724;SDS011;28369;44.046;23.014;2022-10-16T09:39:24;23.10;;;12.32;;
42724;SDS011;28369;44.046;23.014;2022-10-16T09:41:50;18.95;;;11.25;;
42724;SDS011;28369;44.046;23.014;2022-10-16T09:44:26;17.52;;;11.45;;
42724;SDS011;28369;44.046;23.014;2022-10-16T09:47:32;18.23;;;11.05;;
42724;SDS011;28369;44.046;23.014;2022-10-16T09:50:21;18.75;;;10.95;;
42724;SDS011;28369;44.046;23.014;2022-10-16T09:52:49;22.63;;;11.45;;
42724;SDS011;28369;44.046;23.014;2022-10-16T09:55:16;26.48;;;11.68;;
42724;SDS011;28369;44.046;23.014;2022-10-16T09:57:52;18.90;;;10.60;;
42724;SDS011;28369;44.046;23.014;2022-10-16T10:00:19;19.08;;;10.45;;
42724;SDS011;28369;44.046;23.014;2022-10-16T10:02:46;20.92;;;10.15;;
42724;SDS011;28369;44.046;23.014;2022-10-16T10:05:25;22.38;;;10.18;;
42724;SDS011;28369;44.046;23.014;2022-10-16T10:07:54;26.40;;;9.63;;
42724;SDS011;28369;44.046;23.014;2022-10-16T10:10:23;15.35;;;9.98;;
42724;SDS011;28369;44.046;23.014;2022-10-16T10:12:51;17.95;;;9.18;;
42724;SDS011;28369;44.046;23.014;2022-10-16T10:15:23;13.57;;;8.48;;
42724;SDS011;28369;44.046;23.014;2022-10-16T10:21:25;14.75;;;8.13;;
42724;SDS011;28369;44.046;23.014;2022-10-16T10:27:35;14.40;;;8.10;;
42724;SDS011;28369;44.046;23.014;2022-10-16T10:42:21;14.30;;;6.88;;
42724;SDS011;28369;44.046;23.014;2022-10-16T10:59:05;11.50;;;7.20;;
42724;SDS011;28369;44.046;23.014;2022-10-16T11:05:13;15.30;;;7.50;;
42724;SDS011;28369;44.046;23.014;2022-10-16T11:08:31;13.70;;;6.60;;
42724;SDS011;28369;44.046;23.014;2022-10-16T11:14:36;12.20;;;8.35;;
42724;SDS011;28369;44.046;23.014;2022-10-16T11:17:12;23.42;;;12.80;;
42724;SDS011;28369;44.046;23.014;2022-10-16T11:22:50;14.68;;;8.27;;
42724;SDS011;28369;44.046;23.014;2022-10-16T11:25:56;13.93;;;7.57;;
42724;SDS011;28369;44.046;23.014;2022-10-16T11:32:04;11.30;;;7.38;;
42724;SDS011;28369;44.046;23.014;2022-10-16T11:37:56;18.45;;;10.68;;
42724;SDS011;28369;44.046;23.014;2022-10-16T11:40:25;15.55;;;8.05;;
42724;SDS011;28369;44.046;23.014;2022-10-16T11:43:00;14.55;;;8.48;;
42724;SDS011;28369;44.046;23.014;2022-10-16T11:45:54;15.35;;;7.80;;
42724;SDS011;28369;44.046;23.014;2022-10-16T11:57:52;43.38;;;30.80;;
42724;SDS011;28369;44.046;23.014;2022-10-16T12:00:24;105.50;;;78.85;;
42724;SDS011;28369;44.046;23.014;2022-10-16T12:09:38;12.38;;;8.70;;
42724;SDS011;28369;44.046;23.014;2022-10-16T12:12:05;17.00;;;9.93;;
42724;SDS011;28369;44.046;23.014;2022-10-16T12:15:34;16.05;;;9.93;;
42724;SDS011;28369;44.046;23.014;2022-10-16T12:21:34;10.88;;;6.50;;
42724;SDS011;28369;44.046;23.014;2022-10-16T12:27:25;12.43;;;5.80;;
42724;SDS011;28369;44.046;23.014;2022-10-16T12:36:31;21.30;;;12.07;;
42724;SDS011;28369;44.046;23.014;2022-10-16T12:38:58;18.10;;;10.32;;
42724;SDS011;28369;44.046;23.014;2022-10-16T12:53:37;32.75;;;16.55;;
42724;SDS011;28369;44.046;23.014;2022-10-16T13:11:27;60.92;;;38.95;;
42724;SDS011;28369;44.046;23.014;2022-10-16T13:36:06;7.90;;;3.90;;
42724;SDS011;28369;44.046;23.014;2022-10-16T13:38:34;5.60;;;4.03;;
42724;SDS011;28369;44.046;23.014;2022-10-16T13:41:05;11.38;;;5.50;;
42724;SDS011;28369;44.046;23.014;2022-10-16T13:47:24;16.48;;;6.82;;
42724;SDS011;28369;44.046;23.014;2022-10-16T14:01:39;12.75;;;5.20;;
42724;SDS011;28369;44.046;23.014;2022-10-16T14:04:08;23.27;;;5.05;;
42724;SDS011;28369;44.046;23.014;2022-10-16T14:06:36;67.30;;;38.85;;
42724;SDS011;28369;44.046;23.014;2022-10-16T14:09:11;49.33;;;27.50;;
42724;SDS011;28369;44.046;23.014;2022-10-16T14:11:48;65.38;;;32.40;;
42724;SDS011;28369;44.046;23.014;2022-10-16T14:14:16;130.15;;;78.05;;
42724;SDS011;28369;44.046;23.014;2022-10-16T14:16:43;153.73;;;110.15;;
42724;SDS011;28369;44.046;23.014;2022-10-16T14:19:14;42.17;;;25.38;;
42724;SDS011;28369;44.046;23.014;2022-10-16T14:31:29;101.00;;;67.65;;
42724;SDS011;28369;44.046;23.014;2022-10-16T14:37:52;79.97;;;51.33;;
42724;SDS011;28369;44.046;23.014;2022-10-16T14:40:19;31.92;;;18.70;;
42724;SDS011;28369;44.046;23.014;2022-10-16T14:42:48;24.55;;;16.40;;
42724;SDS011;28369;44.046;23.014;2022-10-16T14:45:17;21.85;;;17.00;;
42724;SDS011;28369;44.046;23.014;2022-10-16T14:47:47;26.38;;;17.30;;
42724;SDS011;28369;44.046;23.014;2022-10-16T14:50:22;25.02;;;17.05;;
42724;SDS011;28369;44.046;23.014;2022-10-16T14:52:48;141.07;;;71.22;;
42724;SDS011;28369;44.046;23.014;2022-10-16T14:55:14;43.55;;;22.75;;
42724;SDS011;28369;44.046;23.014;2022-10-16T14:57:40;11.82;;;6.13;;
42724;SDS011;28369;44.046;23.014;2022-10-16T15:03:34;252.57;;;150.98;;
42724;SDS011;28369;44.046;23.014;2022-10-16T15:06:00;251.35;;;147.30;;
42724;SDS011;28369;44.046;23.014;2022-10-16T15:08:25;310.02;;;187.65;;
42724;SDS011;28369;44.046;23.014;2022-10-16T15:10:50;347.48;;;210.48;;
42724;SDS011;28369;44.046;23.014;2022-10-16T15:16:38;274.45;;;165.07;;
42724;SDS011;28369;44.046;23.014;2022-10-16T15:24:51;216.43;;;122.82;;
42724;SDS011;28369;44.046;23.014;2022-10-16T15:27:17;143.70;;;83.10;;
42724;SDS011;28369;44.046;23.014;2022-10-16T15:29:42;96.25;;;55.05;;
42724;SDS011;28369;44.046;23.014;2022-10-16T15:32:09;49.97;;;27.95;;
42724;SDS011;28369;44.046;23.014;2022-10-16T15:34:35;23.98;;;12.88;;
42724;SDS011;28369;44.046;23.014;2022-10-16T15:37:02;22.45;;;12.40;;
42724;SDS011;28369;44.046;23.014;2022-10-16T15:45:15;13.98;;;6.80;;
42724;SDS011;28369;44.046;23.014;2022-10-16T15:47:42;15.27;;;6.55;;
42724;SDS011;28369;44.046;23.014;2022-10-16T15:50:09;17.27;;;9.38;;
42724;SDS011;28369;44.046;23.014;2022-10-16T15:52:36;17.35;;;6.97;;
42724;SDS011;28369;44.046;23.014;2022-10-16T15:55:04;19.40;;;6.65;;
42724;SDS011;28369;44.046;23.014;2022-10-16T15:57:33;8.77;;;5.82;;
42724;SDS011;28369;44.046;23.014;2022-10-16T15:59:59;11.85;;;6.80;;
42724;SDS011;28369;44.046;23.014;2022-10-16T16:02:24;11.45;;;6.05;;
42724;SDS011;28369;44.046;23.014;2022-10-16T16:04:50;14.35;;;6.43;;
42724;SDS011;28369;44.046;23.014;2022-10-16T16:07:15;14.20;;;6.30;;
42724;SDS011;28369;44.046;23.014;2022-10-16T16:09:41;14.10;;;6.40;;
42724;SDS011;28369;44.046;23.014;2022-10-16T16:12:06;11.57;;;7.13;;
42724;SDS011;28369;44.046;23.014;2022-10-16T16:14:32;15.68;;;6.93;;
42724;SDS011;28369;44.046;23.014;2022-10-16T16:16:57;12.43;;;7.00;;
42724;SDS011;28369;44.046;23.014;2022-10-16T16:19:23;15.07;;;6.97;;
42724;SDS011;28369;44.046;23.014;2022-10-16T16:21:49;17.80;;;7.43;;
42724;SDS011;28369;44.046;23.014;2022-10-16T16:24:15;14.45;;;6.82;;
42724;SDS011;28369;44.046;23.014;2022-10-16T16:26:40;20.80;;;7.38;;
42724;SDS011;28369;44.046;23.014;2022-10-16T16:29:12;12.32;;;7.10;;
42724;SDS011;28369;44.046;23.014;2022-10-16T16:31:38;22.23;;;7.43;;
42724;SDS011;28369;44.046;23.014;2022-10-16T16:34:05;19.35;;;8.23;;
42724;SDS011;28369;44.046;23.014;2022-10-16T16:36:31;20.98;;;7.82;;
42724;SDS011;28369;44.046;23.014;2022-10-16T16:38:57;19.50;;;8.18;;
42724;SDS011;28369;44.046;23.014;2022-10-16T16:41:24;30.60;;;8.60;;
42724;SDS011;28369;44.046;23.014;2022-10-16T16:43:54;30.55;;;9.55;;
42724;SDS011;28369;44.046;23.014;2022-10-16T16:46:20;25.13;;;9.57;;
42724;SDS011;28369;44.046;23.014;2022-10-16T16:48:46;20.85;;;9.55;;
42724;SDS011;28369;44.046;23.014;2022-10-16T16:51:13;21.02;;;9.05;;
42724;SDS011;28369;44.046;23.014;2022-10-16T16:57:02;16.92;;;7.78;;
42724;SDS011;28369;44.046;23.014;2022-10-16T17:02:53;15.00;;;7.35;;
42724;SDS011;28369;44.046;23.014;2022-10-16T17:08:41;12.30;;;8.25;;
42724;SDS011;28369;44.046;23.014;2022-10-16T17:20:16;14.05;;;6.95;;
42724;SDS011;28369;44.046;23.014;2022-10-16T17:26:13;17.30;;;7.63;;
42724;SDS011;28369;44.046;23.014;2022-10-16T17:28:41;14.82;;;8.43;;
42724;SDS011;28369;44.046;23.014;2022-10-16T17:31:14;17.05;;;8.57;;
42724;SDS011;28369;44.046;23.014;2022-10-16T17:33:44;18.15;;;8.15;;
42724;SDS011;28369;44.046;23.014;2022-10-16T17:36:11;16.92;;;8.20;;
42724;SDS011;28369;44.046;23.014;2022-10-16T17:38:57;18.83;;;8.65;;
42724;SDS011;28369;44.046;23.014;2022-10-16T17:41:25;16.38;;;8.50;;
42724;SDS011;28369;44.046;23.014;2022-10-16T17:43:51;35.42;;;16.48;;
42724;SDS011;28369;44.046;23.014;2022-10-16T17:46:18;41.00;;;18.80;;
42724;SDS011;28369;44.046;23.014;2022-10-16T17:48:46;27.45;;;14.57;;
42724;SDS011;28369;44.046;23.014;2022-10-16T17:51:14;27.52;;;13.45;;
42724;SDS011;28369;44.046;23.014;2022-10-16T17:53:42;19.27;;;11.50;;
42724;SDS011;28369;44.046;23.014;2022-10-16T17:56:10;26.13;;;10.52;;
42724;SDS011;28369;44.046;23.014;2022-10-16T17:58:37;16.83;;;10.70;;
42724;SDS011;28369;44.046;23.014;2022-10-16T18:01:13;38.17;;;19.23;;
42724;SDS011;28369;44.046;23.014;2022-10-16T18:03:40;26.27;;;12.07;;
42724;SDS011;28369;44.046;23.014;2022-10-16T18:06:06;16.20;;;10.98;;
42724;SDS011;28369;44.046;23.014;2022-10-16T18:11:38;18.60;;;10.65;;
42724;SDS011;28369;44.046;23.014;2022-10-16T18:14:04;21.45;;;11.35;;
42724;SDS011;28369;44.046;23.014;2022-10-16T18:16:30;23.30;;;11.07;;
42724;SDS011;28369;44.046;23.014;2022-10-16T18:18:56;27.10;;;12.40;;
42724;SDS011;28369;44.046;23.014;2022-10-16T18:21:23;22.23;;;12.27;;
42724;SDS011;28369;44.046;23.014;2022-10-16T18:26:37;32.10;;;18.73;;
42724;SDS011;28369;44.046;23.014;2022-10-16T18:29:03;34.40;;;21.13;;
42724;SDS011;28369;44.046;23.014;2022-10-16T18:31:29;81.28;;;39.80;;
42724;SDS011;28369;44.046;23.014;2022-10-16T18:37:17;51.72;;;24.55;;
42724;SDS011;28369;44.046;23.014;2022-10-16T18:39:54;33.45;;;19.27;;
42724;SDS011;28369;44.046;23.014;2022-10-16T18:42:19;30.60;;;19.60;;
42724;SDS011;28369;44.046;23.014;2022-10-16T18:44:45;32.83;;;18.30;;
42724;SDS011;28369;44.046;23.014;2022-10-16T18:47:16;30.20;;;17.33;;
42724;SDS011;28369;44.046;23.014;2022-10-16T18:49:42;35.25;;;17.40;;
42724;SDS011;28369;44.046;23.014;2022-10-16T18:52:08;31.63;;;16.90;;
42724;SDS011;28369;44.046;23.014;2022-10-16T18:54:39;25.73;;;15.85;;
42724;SDS011;28369;44.046;23.014;2022-10-16T18:57:05;27.33;;;15.15;;
42724;SDS011;28369;44.046;23.014;2022-10-16T18:59:30;29.90;;;16.95;;
42724;SDS011;28369;44.046;23.014;2022-10-16T19:02:13;29.13;;;16.75;;
42724;SDS011;28369;44.046;23.014;2022-10-16T19:21:02;27.50;;;15.98;;
42724;SDS011;28369;44.046;23.014;2022-10-16T19:26:57;35.10;;;16.65;;
42724;SDS011;28369;44.046;23.014;2022-10-16T19:32:51;34.28;;;19.05;;
42724;SDS011;28369;44.046;23.014;2022-10-16T19:35:17;42.65;;;19.50;;
42724;SDS011;28369;44.046;23.014;2022-10-16T19:37:43;32.40;;;18.02;;
42724;SDS011;28369;44.046;23.014;2022-10-16T19:46:34;33.83;;;17.95;;
42724;SDS011;28369;44.046;23.014;2022-10-16T19:52:21;29.30;;;18.10;;
42724;SDS011;28369;44.046;23.014;2022-10-16T19:54:47;27.23;;;17.60;;
42724;SDS011;28369;44.046;23.014;2022-10-16T19:57:12;38.72;;;16.70;;
42724;SDS011;28369;44.046;23.014;2022-10-16T19:59:38;30.00;;;18.98;;
42724;SDS011;28369;44.046;23.014;2022-10-16T20:02:03;29.65;;;17.50;;
42724;SDS011;28369;44.046;23.014;2022-10-16T20:04:29;31.70;;;17.90;;
42724;SDS011;28369;44.046;23.014;2022-10-16T20:06:54;30.83;;;19.52;;